sensor_id;sensor_type;location;lat;lon;timestamp;P1;durP1;ratioP1;P2;durP2;ratioP2
35677;SDS011;21791;42.828;74.582;2023-02-04T07:26:02;18.77;;;15.13;;
35677;SDS011;21791;42.828;74.582;2023-02-04T07:28:28;22.40;;;19.65;;
35677;SDS011;21791;42.828;74.582;2023-02-04T07:30:56;22.17;;;18.55;;
35677;SDS011;21791;42.828;74.582;2023-02-04T07:33:22;27.50;;;22.40;;
35677;SDS011;21791;42.828;74.582;2023-02-04T07:35:49;30.35;;;24.25;;
35677;SDS011;21791;42.828;74.582;2023-02-04T07:38:15;40.22;;;31.35;;
35677;SDS011;21791;42.828;74.582;2023-02-04T07:40:42;62.10;;;45.47;;
35677;SDS011;21791;42.828;74.582;2023-02-04T07:43:11;81.90;;;57.67;;
35677;SDS011;21791;42.828;74.582;2023-02-04T07:45:37;74.82;;;52.97;;
35677;SDS011;21791;42.828;74.582;2023-02-04T07:48:04;65.82;;;47.75;;
35677;SDS011;21791;42.828;74.582;2023-02-04T07:50:31;58.88;;;42.58;;
35677;SDS011;21791;42.828;74.582;2023-02-04T07:52:57;67.80;;;46.92;;
35677;SDS011;21791;42.828;74.582;2023-02-04T07:55:24;64.15;;;45.38;;
35677;SDS011;21791;42.828;74.582;2023-02-04T07:57:50;76.55;;;51.28;;
35677;SDS011;21791;42.828;74.582;2023-02-04T08:00:17;77.75;;;52.20;;
35677;SDS011;21791;42.828;74.582;2023-02-04T08:02:43;70.85;;;48.25;;
35677;SDS011;21791;42.828;74.582;2023-02-04T08:05:10;69.80;;;49.55;;
35677;SDS011;21791;42.828;74.582;2023-02-04T08:07:37;77.25;;;52.47;;
35677;SDS011;21791;42.828;74.582;2023-02-04T08:10:04;71.30;;;48.97;;
35677;SDS011;21791;42.828;74.582;2023-02-04T08:12:32;69.40;;;45.50;;
35677;SDS011;21791;42.828;74.582;2023-02-04T08:14:59;80.90;;;52.28;;
35677;SDS011;21791;42.828;74.582;2023-02-04T08:17:26;81.78;;;52.35;;
35677;SDS011;21791;42.828;74.582;2023-02-04T08:19:52;89.15;;;54.50;;
35677;SDS011;21791;42.828;74.582;2023-02-04T08:22:19;93.32;;;55.47;;
35677;SDS011;21791;42.828;74.582;2023-02-04T08:24:46;83.22;;;50.63;;
35677;SDS011;21791;42.828;74.582;2023-02-04T08:27:12;84.32;;;51.28;;
35677;SDS011;21791;42.828;74.582;2023-02-04T08:29:39;79.53;;;47.38;;
35677;SDS011;21791;42.828;74.582;2023-02-04T08:32:06;73.38;;;45.05;;
35677;SDS011;21791;42.828;74.582;2023-02-04T08:34:35;64.65;;;42.15;;
35677;SDS011;21791;42.828;74.582;2023-02-04T08:37:01;58.22;;;35.72;;
35677;SDS011;21791;42.828;74.582;2023-02-04T08:39:28;56.05;;;37.00;;
35677;SDS011;21791;42.828;74.582;2023-02-04T08:41:55;57.60;;;37.15;;
35677;SDS011;21791;42.828;74.582;2023-02-04T08:44:21;58.05;;;37.88;;
35677;SDS011;21791;42.828;74.582;2023-02-04T08:46:48;57.28;;;36.67;;
35677;SDS011;21791;42.828;74.582;2023-02-04T08:49:14;49.03;;;31.33;;
35677;SDS011;21791;42.828;74.582;2023-02-04T08:51:40;47.03;;;30.98;;
35677;SDS011;21791;42.828;74.582;2023-02-04T08:54:07;46.75;;;29.10;;
35677;SDS011;21791;42.828;74.582;2023-02-04T08:56:33;47.15;;;27.20;;
35677;SDS011;21791;42.828;74.582;2023-02-04T08:59:00;41.22;;;23.40;;
35677;SDS011;21791;42.828;74.582;2023-02-04T09:01:27;40.95;;;25.58;;
35677;SDS011;21791;42.828;74.582;2023-02-04T09:03:53;35.78;;;23.60;;
35677;SDS011;21791;42.828;74.582;2023-02-04T09:06:20;42.42;;;27.80;;
35677;SDS011;21791;42.828;74.582;2023-02-04T09:08:46;52.85;;;32.13;;
35677;SDS011;21791;42.828;74.582;2023-02-04T09:11:13;59.50;;;39.15;;
35677;SDS011;21791;42.828;74.582;2023-02-04T09:13:39;55.83;;;36.63;;
35677;SDS011;21791;42.828;74.582;2023-02-04T09:16:06;56.85;;;34.47;;
35677;SDS011;21791;42.828;74.582;2023-02-04T09:18:32;49.63;;;32.65;;
35677;SDS011;21791;42.828;74.582;2023-02-04T09:20:59;48.42;;;32.63;;
35677;SDS011;21791;42.828;74.582;2023-02-04T09:23:26;48.83;;;32.63;;
35677;SDS011;21791;42.828;74.582;2023-02-04T09:25:53;51.63;;;33.83;;
35677;SDS011;21791;42.828;74.582;2023-02-04T09:28:19;47.33;;;30.65;;
35677;SDS011;21791;42.828;74.582;2023-02-04T09:30:46;47.90;;;31.95;;
35677;SDS011;21791;42.828;74.582;2023-02-04T09:33:13;49.30;;;32.15;;
35677;SDS011;21791;42.828;74.582;2023-02-04T09:35:43;50.50;;;33.33;;
35677;SDS011;21791;42.828;74.582;2023-02-04T09:38:10;47.22;;;31.88;;
35677;SDS011;21791;42.828;74.582;2023-02-04T09:40:37;43.30;;;26.70;;
35677;SDS011;21791;42.828;74.582;2023-02-04T09:43:08;42.13;;;29.42;;
35677;SDS011;21791;42.828;74.582;2023-02-04T09:45:44;41.42;;;29.25;;
35677;SDS011;21791;42.828;74.582;2023-02-04T09:48:13;41.90;;;28.48;;
35677;SDS011;21791;42.828;74.582;2023-02-04T09:50:40;41.05;;;28.30;;
35677;SDS011;21791;42.828;74.582;2023-02-04T09:53:09;36.72;;;24.55;;
35677;SDS011;21791;42.828;74.582;2023-02-04T09:55:42;36.78;;;24.45;;
35677;SDS011;21791;42.828;74.582;2023-02-04T09:58:20;31.17;;;20.73;;
35677;SDS011;21791;42.828;74.582;2023-02-04T10:01:09;31.80;;;21.13;;
35677;SDS011;21791;42.828;74.582;2023-02-04T10:03:44;34.90;;;21.92;;
35677;SDS011;21791;42.828;74.582;2023-02-04T10:06:19;36.67;;;23.70;;
35677;SDS011;21791;42.828;74.582;2023-02-04T10:08:47;38.25;;;24.98;;
35677;SDS011;21791;42.828;74.582;2023-02-04T10:11:16;39.42;;;24.55;;
35677;SDS011;21791;42.828;74.582;2023-02-04T10:13:46;34.28;;;23.73;;
35677;SDS011;21791;42.828;74.582;2023-02-04T10:16:25;39.33;;;24.65;;
35677;SDS011;21791;42.828;74.582;2023-02-04T10:18:56;39.70;;;26.23;;
35677;SDS011;21791;42.828;74.582;2023-02-04T10:21:30;37.45;;;25.08;;
35677;SDS011;21791;42.828;74.582;2023-02-04T10:24:00;38.10;;;24.27;;
35677;SDS011;21791;42.828;74.582;2023-02-04T10:26:30;39.70;;;24.77;;
35677;SDS011;21791;42.828;74.582;2023-02-04T10:28:59;39.42;;;23.85;;
35677;SDS011;21791;42.828;74.582;2023-02-04T10:31:37;41.55;;;25.73;;
35677;SDS011;21791;42.828;74.582;2023-02-04T10:36:46;40.42;;;25.13;;
35677;SDS011;21791;42.828;74.582;2023-02-04T10:39:18;38.90;;;24.33;;
35677;SDS011;21791;42.828;74.582;2023-02-04T10:41:53;34.45;;;23.55;;
35677;SDS011;21791;42.828;74.582;2023-02-04T10:44:30;34.92;;;24.02;;
35677;SDS011;21791;42.828;74.582;2023-02-04T10:47:14;34.80;;;22.05;;
35677;SDS011;21791;42.828;74.582;2023-02-04T10:49:55;33.20;;;22.70;;
35677;SDS011;21791;42.828;74.582;2023-02-04T10:52:43;38.50;;;24.83;;
35677;SDS011;21791;42.828;74.582;2023-02-04T10:55:14;46.88;;;27.75;;
35677;SDS011;21791;42.828;74.582;2023-02-04T10:57:45;40.30;;;26.77;;
35677;SDS011;21791;42.828;74.582;2023-02-04T11:00:17;36.60;;;24.75;;
35677;SDS011;21791;42.828;74.582;2023-02-04T11:05:20;35.50;;;24.48;;
35677;SDS011;21791;42.828;74.582;2023-02-04T11:07:48;42.97;;;27.38;;
35677;SDS011;21791;42.828;74.582;2023-02-04T11:10:19;35.67;;;26.08;;
35677;SDS011;21791;42.828;74.582;2023-02-04T11:15:37;41.85;;;28.55;;
35677;SDS011;21791;42.828;74.582;2023-02-04T11:18:10;38.70;;;26.10;;
35677;SDS011;21791;42.828;74.582;2023-02-04T11:20:39;36.90;;;25.85;;
35677;SDS011;21791;42.828;74.582;2023-02-04T11:28:44;35.20;;;24.38;;
35677;SDS011;21791;42.828;74.582;2023-02-04T11:39:21;35.88;;;23.75;;
35677;SDS011;21791;42.828;74.582;2023-02-04T11:42:04;32.67;;;23.70;;
35677;SDS011;21791;42.828;74.582;2023-02-04T11:44:31;37.10;;;25.17;;
35677;SDS011;21791;42.828;74.582;2023-02-04T11:46:59;36.88;;;25.13;;
35677;SDS011;21791;42.828;74.582;2023-02-04T11:49:27;35.80;;;24.40;;
35677;SDS011;21791;42.828;74.582;2023-02-04T11:52:06;36.42;;;25.15;;
35677;SDS011;21791;42.828;74.582;2023-02-04T11:54:38;36.83;;;24.88;;
35677;SDS011;21791;42.828;74.582;2023-02-04T11:57:05;38.22;;;25.88;;
35677;SDS011;21791;42.828;74.582;2023-02-04T11:59:31;35.33;;;25.13;;
35677;SDS011;21791;42.828;74.582;2023-02-04T12:02:05;39.80;;;27.40;;
35677;SDS011;21791;42.828;74.582;2023-02-04T12:04:49;43.50;;;28.60;;
35677;SDS011;21791;42.828;74.582;2023-02-04T12:07:24;42.45;;;27.48;;
35677;SDS011;21791;42.828;74.582;2023-02-04T12:09:53;44.63;;;29.08;;
35677;SDS011;21791;42.828;74.582;2023-02-04T12:12:28;41.53;;;28.35;;
35677;SDS011;21791;42.828;74.582;2023-02-04T12:15:00;35.08;;;23.50;;
35677;SDS011;21791;42.828;74.582;2023-02-04T12:17:33;35.70;;;23.67;;
35677;SDS011;21791;42.828;74.582;2023-02-04T12:20:00;36.28;;;23.58;;
35677;SDS011;21791;42.828;74.582;2023-02-04T12:22:26;35.65;;;24.10;;
35677;SDS011;21791;42.828;74.582;2023-02-04T12:24:53;37.28;;;24.95;;
35677;SDS011;21791;42.828;74.582;2023-02-04T12:27:19;32.75;;;21.35;;
35677;SDS011;21791;42.828;74.582;2023-02-04T12:29:46;37.30;;;22.75;;
35677;SDS011;21791;42.828;74.582;2023-02-04T12:32:13;34.33;;;23.55;;
35677;SDS011;21791;42.828;74.582;2023-02-04T12:34:40;36.33;;;25.20;;
35677;SDS011;21791;42.828;74.582;2023-02-04T12:37:06;37.55;;;26.48;;
35677;SDS011;21791;42.828;74.582;2023-02-04T12:39:32;37.42;;;25.30;;
35677;SDS011;21791;42.828;74.582;2023-02-04T12:41:59;36.78;;;25.92;;
35677;SDS011;21791;42.828;74.582;2023-02-04T12:44:25;40.88;;;26.75;;
35677;SDS011;21791;42.828;74.582;2023-02-04T12:46:52;42.17;;;26.35;;
35677;SDS011;21791;42.828;74.582;2023-02-04T12:49:19;44.50;;;28.92;;
35677;SDS011;21791;42.828;74.582;2023-02-04T12:51:49;37.00;;;25.05;;
35677;SDS011;21791;42.828;74.582;2023-02-04T12:54:16;19.13;;;13.57;;
35677;SDS011;21791;42.828;74.582;2023-02-04T12:56:42;24.15;;;16.35;;
35677;SDS011;21791;42.828;74.582;2023-02-04T12:59:09;11.10;;;7.68;;
35677;SDS011;21791;42.828;74.582;2023-02-04T13:01:35;12.15;;;8.02;;
35677;SDS011;21791;42.828;74.582;2023-02-04T13:04:01;11.07;;;8.18;;
35677;SDS011;21791;42.828;74.582;2023-02-04T13:06:28;12.55;;;8.57;;
35677;SDS011;21791;42.828;74.582;2023-02-04T13:08:55;8.40;;;6.22;;
35677;SDS011;21791;42.828;74.582;2023-02-04T13:11:22;8.48;;;5.78;;
35677;SDS011;21791;42.828;74.582;2023-02-04T13:13:48;9.63;;;6.45;;
35677;SDS011;21791;42.828;74.582;2023-02-04T13:16:14;9.60;;;6.50;;
35677;SDS011;21791;42.828;74.582;2023-02-04T13:18:43;9.02;;;6.70;;
35677;SDS011;21791;42.828;74.582;2023-02-04T13:21:10;8.23;;;5.68;;
35677;SDS011;21791;42.828;74.582;2023-02-04T13:23:39;8.40;;;5.75;;
35677;SDS011;21791;42.828;74.582;2023-02-04T13:26:05;11.43;;;6.97;;
35677;SDS011;21791;42.828;74.582;2023-02-04T13:28:34;8.32;;;5.95;;
35677;SDS011;21791;42.828;74.582;2023-02-04T13:31:01;8.52;;;6.03;;
35677;SDS011;21791;42.828;74.582;2023-02-04T13:33:27;8.60;;;6.60;;
35677;SDS011;21791;42.828;74.582;2023-02-04T13:35:54;9.27;;;7.22;;
35677;SDS011;21791;42.828;74.582;2023-02-04T13:38:22;10.73;;;6.55;;
35677;SDS011;21791;42.828;74.582;2023-02-04T13:40:51;9.20;;;6.35;;
35677;SDS011;21791;42.828;74.582;2023-02-04T13:43:18;8.18;;;6.75;;
35677;SDS011;21791;42.828;74.582;2023-02-04T13:45:48;9.38;;;6.60;;
35677;SDS011;21791;42.828;74.582;2023-02-04T13:48:15;9.95;;;7.80;;
35677;SDS011;21791;42.828;74.582;2023-02-04T13:50:41;10.30;;;6.65;;
35677;SDS011;21791;42.828;74.582;2023-02-04T13:53:08;9.57;;;6.38;;
35677;SDS011;21791;42.828;74.582;2023-02-04T13:55:37;8.57;;;6.15;;
35677;SDS011;21791;42.828;74.582;2023-02-04T13:58:03;9.10;;;6.80;;
35677;SDS011;21791;42.828;74.582;2023-02-04T14:00:30;10.20;;;6.80;;
35677;SDS011;21791;42.828;74.582;2023-02-04T14:02:56;9.68;;;7.25;;
35677;SDS011;21791;42.828;74.582;2023-02-04T14:05:23;10.02;;;7.72;;
35677;SDS011;21791;42.828;74.582;2023-02-04T14:07:49;11.07;;;7.25;;
35677;SDS011;21791;42.828;74.582;2023-02-04T14:10:16;11.70;;;8.07;;
35677;SDS011;21791;42.828;74.582;2023-02-04T14:12:43;13.93;;;9.00;;
35677;SDS011;21791;42.828;74.582;2023-02-04T14:15:09;9.93;;;7.63;;
35677;SDS011;21791;42.828;74.582;2023-02-04T14:17:36;9.93;;;7.32;;
35677;SDS011;21791;42.828;74.582;2023-02-04T14:20:03;10.43;;;7.47;;
35677;SDS011;21791;42.828;74.582;2023-02-04T14:22:30;10.73;;;7.90;;
35677;SDS011;21791;42.828;74.582;2023-02-04T14:24:57;11.55;;;8.20;;
35677;SDS011;21791;42.828;74.582;2023-02-04T14:27:24;10.98;;;8.02;;
35677;SDS011;21791;42.828;74.582;2023-02-04T14:29:51;13.75;;;8.70;;
35677;SDS011;21791;42.828;74.582;2023-02-04T14:32:18;16.98;;;10.50;;
35677;SDS011;21791;42.828;74.582;2023-02-04T14:34:45;11.98;;;7.93;;
35677;SDS011;21791;42.828;74.582;2023-02-04T14:37:12;11.90;;;8.32;;
35677;SDS011;21791;42.828;74.582;2023-02-04T14:39:38;15.77;;;9.55;;
35677;SDS011;21791;42.828;74.582;2023-02-04T14:42:05;14.65;;;10.10;;
35677;SDS011;21791;42.828;74.582;2023-02-04T14:44:32;11.93;;;8.38;;
35677;SDS011;21791;42.828;74.582;2023-02-04T14:46:58;16.15;;;10.15;;
35677;SDS011;21791;42.828;74.582;2023-02-04T14:49:25;13.48;;;8.63;;
35677;SDS011;21791;42.828;74.582;2023-02-04T14:51:51;14.55;;;8.68;;
35677;SDS011;21791;42.828;74.582;2023-02-04T14:54:17;11.85;;;8.57;;
35677;SDS011;21791;42.828;74.582;2023-02-04T14:56:44;11.88;;;7.97;;
35677;SDS011;21791;42.828;74.582;2023-02-04T14:59:12;13.38;;;9.10;;
35677;SDS011;21791;42.828;74.582;2023-02-04T15:01:38;11.98;;;7.82;;
35677;SDS011;21791;42.828;74.582;2023-02-04T15:04:06;11.65;;;8.55;;
35677;SDS011;21791;42.828;74.582;2023-02-04T15:06:32;11.27;;;7.85;;
35677;SDS011;21791;42.828;74.582;2023-02-04T15:09:00;14.95;;;10.05;;
35677;SDS011;21791;42.828;74.582;2023-02-04T15:11:26;15.65;;;9.70;;
35677;SDS011;21791;42.828;74.582;2023-02-04T15:13:53;14.57;;;9.65;;
35677;SDS011;21791;42.828;74.582;2023-02-04T15:16:19;14.07;;;9.75;;
35677;SDS011;21791;42.828;74.582;2023-02-04T15:18:46;15.98;;;10.77;;
35677;SDS011;21791;42.828;74.582;2023-02-04T15:21:12;13.40;;;9.10;;
35677;SDS011;21791;42.828;74.582;2023-02-04T15:23:44;16.77;;;11.00;;
35677;SDS011;21791;42.828;74.582;2023-02-04T15:26:12;17.77;;;11.02;;
35677;SDS011;21791;42.828;74.582;2023-02-04T15:28:39;18.10;;;10.88;;
35677;SDS011;21791;42.828;74.582;2023-02-04T15:31:05;16.67;;;11.10;;
35677;SDS011;21791;42.828;74.582;2023-02-04T15:33:36;17.70;;;10.95;;
35677;SDS011;21791;42.828;74.582;2023-02-04T15:36:05;12.98;;;9.07;;
35677;SDS011;21791;42.828;74.582;2023-02-04T15:38:35;13.13;;;8.32;;
35677;SDS011;21791;42.828;74.582;2023-02-04T15:41:02;10.80;;;7.38;;
35677;SDS011;21791;42.828;74.582;2023-02-04T15:43:28;12.98;;;8.18;;
35677;SDS011;21791;42.828;74.582;2023-02-04T15:45:55;10.02;;;7.10;;
35677;SDS011;21791;42.828;74.582;2023-02-04T15:48:22;10.43;;;6.88;;
35677;SDS011;21791;42.828;74.582;2023-02-04T15:50:53;8.50;;;5.88;;
35677;SDS011;21791;42.828;74.582;2023-02-04T15:53:19;8.95;;;6.82;;
35677;SDS011;21791;42.828;74.582;2023-02-04T15:55:46;7.65;;;4.97;;
35677;SDS011;21791;42.828;74.582;2023-02-04T15:58:13;6.78;;;5.07;;
35677;SDS011;21791;42.828;74.582;2023-02-04T16:00:39;7.32;;;5.55;;
35677;SDS011;21791;42.828;74.582;2023-02-04T16:03:06;7.85;;;5.88;;
35677;SDS011;21791;42.828;74.582;2023-02-04T16:05:33;8.35;;;5.55;;
35677;SDS011;21791;42.828;74.582;2023-02-04T16:08:00;7.90;;;5.60;;
35677;SDS011;21791;42.828;74.582;2023-02-04T16:10:26;6.53;;;5.07;;
35677;SDS011;21791;42.828;74.582;2023-02-04T16:12:53;8.18;;;5.55;;
35677;SDS011;21791;42.828;74.582;2023-02-04T16:15:23;9.35;;;6.85;;
35677;SDS011;21791;42.828;74.582;2023-02-04T16:17:50;7.65;;;5.38;;
35677;SDS011;21791;42.828;74.582;2023-02-04T16:20:19;5.82;;;4.60;;
35677;SDS011;21791;42.828;74.582;2023-02-04T16:22:46;6.35;;;4.50;;
35677;SDS011;21791;42.828;74.582;2023-02-04T16:25:13;5.10;;;4.03;;
35677;SDS011;21791;42.828;74.582;2023-02-04T16:27:40;5.97;;;4.00;;
35677;SDS011;21791;42.828;74.582;2023-02-04T16:30:06;5.82;;;3.95;;
35677;SDS011;21791;42.828;74.582;2023-02-04T16:32:33;5.78;;;4.03;;
35677;SDS011;21791;42.828;74.582;2023-02-04T16:35:01;6.95;;;4.72;;
35677;SDS011;21791;42.828;74.582;2023-02-04T16:37:29;9.02;;;4.95;;
35677;SDS011;21791;42.828;74.582;2023-02-04T16:39:56;8.48;;;5.90;;
35677;SDS011;21791;42.828;74.582;2023-02-04T16:42:22;7.30;;;4.95;;
35677;SDS011;21791;42.828;74.582;2023-02-04T16:44:49;7.38;;;5.40;;
35677;SDS011;21791;42.828;74.582;2023-02-04T16:47:15;7.57;;;5.25;;
35677;SDS011;21791;42.828;74.582;2023-02-04T16:49:42;6.43;;;4.18;;
35677;SDS011;21791;42.828;74.582;2023-02-04T16:52:12;7.90;;;4.80;;
35677;SDS011;21791;42.828;74.582;2023-02-04T16:54:39;6.88;;;4.78;;
35677;SDS011;21791;42.828;74.582;2023-02-04T16:57:06;8.07;;;5.20;;
35677;SDS011;21791;42.828;74.582;2023-02-04T16:59:32;5.88;;;4.30;;
35677;SDS011;21791;42.828;74.582;2023-02-04T17:01:59;6.75;;;4.85;;
35677;SDS011;21791;42.828;74.582;2023-02-04T17:04:29;6.18;;;4.28;;
35677;SDS011;21791;42.828;74.582;2023-02-04T17:06:56;6.45;;;4.60;;
35677;SDS011;21791;42.828;74.582;2023-02-04T17:09:25;6.30;;;4.57;;
35677;SDS011;21791;42.828;74.582;2023-02-04T17:11:52;5.05;;;4.07;;
35677;SDS011;21791;42.828;74.582;2023-02-04T17:14:18;6.32;;;4.45;;
35677;SDS011;21791;42.828;74.582;2023-02-04T17:16:46;7.50;;;4.78;;
35677;SDS011;21791;42.828;74.582;2023-02-04T17:19:13;7.13;;;5.10;;
35677;SDS011;21791;42.828;74.582;2023-02-04T17:21:45;6.15;;;4.28;;
35677;SDS011;21791;42.828;74.582;2023-02-04T17:24:12;7.53;;;4.70;;
35677;SDS011;21791;42.828;74.582;2023-02-04T17:26:40;7.00;;;5.53;;
35677;SDS011;21791;42.828;74.582;2023-02-04T17:29:08;6.72;;;4.45;;
35677;SDS011;21791;42.828;74.582;2023-02-04T17:31:39;6.22;;;4.13;;
35677;SDS011;21791;42.828;74.582;2023-02-04T17:34:08;6.05;;;4.35;;
35677;SDS011;21791;42.828;74.582;2023-02-04T17:36:35;6.18;;;4.30;;
35677;SDS011;21791;42.828;74.582;2023-02-04T17:39:03;6.57;;;4.57;;
35677;SDS011;21791;42.828;74.582;2023-02-04T17:41:30;9.38;;;5.90;;
35677;SDS011;21791;42.828;74.582;2023-02-04T17:43:56;9.65;;;5.43;;
35677;SDS011;21791;42.828;74.582;2023-02-04T17:46:23;7.15;;;4.35;;
35677;SDS011;21791;42.828;74.582;2023-02-04T17:48:50;7.50;;;5.40;;
35677;SDS011;21791;42.828;74.582;2023-02-04T17:51:17;7.15;;;4.95;;
35677;SDS011;21791;42.828;74.582;2023-02-04T17:53:44;6.35;;;4.63;;
35677;SDS011;21791;42.828;74.582;2023-02-04T17:56:11;7.22;;;4.75;;
35677;SDS011;21791;42.828;74.582;2023-02-04T17:58:39;7.78;;;4.88;;
35677;SDS011;21791;42.828;74.582;2023-02-04T18:01:10;8.10;;;5.05;;
35677;SDS011;21791;42.828;74.582;2023-02-04T18:03:38;7.68;;;4.53;;
35677;SDS011;21791;42.828;74.582;2023-02-04T18:06:28;8.25;;;4.75;;
35677;SDS011;21791;42.828;74.582;2023-02-04T18:08:54;8.02;;;5.35;;
35677;SDS011;21791;42.828;74.582;2023-02-04T18:11:27;7.68;;;4.80;;
35677;SDS011;21791;42.828;74.582;2023-02-04T18:14:00;8.63;;;5.78;;
35677;SDS011;21791;42.828;74.582;2023-02-04T18:16:35;8.85;;;5.50;;
35677;SDS011;21791;42.828;74.582;2023-02-04T18:21:47;7.47;;;5.53;;
35677;SDS011;21791;42.828;74.582;2023-02-04T18:24:36;7.90;;;5.70;;
35677;SDS011;21791;42.828;74.582;2023-02-04T18:27:18;8.63;;;5.90;;
35677;SDS011;21791;42.828;74.582;2023-02-04T18:29:47;8.45;;;6.28;;
35677;SDS011;21791;42.828;74.582;2023-02-04T18:34:50;9.85;;;6.75;;
35677;SDS011;21791;42.828;74.582;2023-02-04T18:37:31;9.68;;;6.57;;
35677;SDS011;21791;42.828;74.582;2023-02-04T18:40:23;9.48;;;6.80;;
35677;SDS011;21791;42.828;74.582;2023-02-04T18:43:34;10.27;;;7.07;;
35677;SDS011;21791;42.828;74.582;2023-02-04T18:45:44;10.75;;;6.85;;
35677;SDS011;21791;42.828;74.582;2023-02-04T18:50:47;10.68;;;7.25;;
35677;SDS011;21791;42.828;74.582;2023-02-04T18:53:20;9.93;;;6.50;;
35677;SDS011;21791;42.828;74.582;2023-02-04T18:55:55;8.35;;;6.30;;
35677;SDS011;21791;42.828;74.582;2023-02-04T18:58:41;9.52;;;6.57;;
35677;SDS011;21791;42.828;74.582;2023-02-04T19:01:19;10.23;;;7.28;;
35677;SDS011;21791;42.828;74.582;2023-02-04T19:03:56;8.13;;;5.90;;
35677;SDS011;21791;42.828;74.582;2023-02-04T19:06:25;9.43;;;6.75;;
35677;SDS011;21791;42.828;74.582;2023-02-04T19:08:57;9.85;;;6.82;;
35677;SDS011;21791;42.828;74.582;2023-02-04T19:11:41;10.75;;;6.60;;
35677;SDS011;21791;42.828;74.582;2023-02-04T19:14:55;9.93;;;6.38;;
35677;SDS011;21791;42.828;74.582;2023-02-04T19:17:21;10.43;;;6.07;;
35677;SDS011;21791;42.828;74.582;2023-02-04T19:22:28;10.73;;;6.90;;
35677;SDS011;21791;42.828;74.582;2023-02-04T19:28:21;8.00;;;6.10;;
35677;SDS011;21791;42.828;74.582;2023-02-04T19:30:58;8.18;;;5.15;;
35677;SDS011;21791;42.828;74.582;2023-02-04T19:36:22;9.77;;;6.32;;
35677;SDS011;21791;42.828;74.582;2023-02-04T19:38:58;6.70;;;5.70;;
35677;SDS011;21791;42.828;74.582;2023-02-04T19:41:50;9.65;;;5.60;;
35677;SDS011;21791;42.828;74.582;2023-02-04T19:46:50;6.97;;;4.95;;
35677;SDS011;21791;42.828;74.582;2023-02-04T19:49:23;5.78;;;4.65;;
35677;SDS011;21791;42.828;74.582;2023-02-04T19:51:56;8.20;;;5.05;;
35677;SDS011;21791;42.828;74.582;2023-02-04T19:54:26;6.68;;;4.60;;
35677;SDS011;21791;42.828;74.582;2023-02-04T19:57:03;6.32;;;5.10;;
35677;SDS011;21791;42.828;74.582;2023-02-04T19:59:48;5.93;;;4.85;;
35677;SDS011;21791;42.828;74.582;2023-02-04T20:04:54;5.20;;;4.32;;
35677;SDS011;21791;42.828;74.582;2023-02-04T20:07:21;5.00;;;3.70;;
35677;SDS011;21791;42.828;74.582;2023-02-04T20:09:51;8.23;;;4.70;;
35677;SDS011;21791;42.828;74.582;2023-02-04T20:12:31;5.57;;;3.90;;
35677;SDS011;21791;42.828;74.582;2023-02-04T20:14:58;5.10;;;3.92;;
35677;SDS011;21791;42.828;74.582;2023-02-04T20:20:19;5.43;;;3.70;;
35677;SDS011;21791;42.828;74.582;2023-02-04T20:25:42;5.05;;;3.95;;
35677;SDS011;21791;42.828;74.582;2023-02-04T20:28:24;5.25;;;4.03;;
35677;SDS011;21791;42.828;74.582;2023-02-04T20:31:12;5.95;;;4.35;;
35677;SDS011;21791;42.828;74.582;2023-02-04T20:33:46;6.40;;;4.50;;
35677;SDS011;21791;42.828;74.582;2023-02-04T20:41:34;6.43;;;3.90;;
35677;SDS011;21791;42.828;74.582;2023-02-04T20:44:11;6.60;;;3.85;;
35677;SDS011;21791;42.828;74.582;2023-02-04T20:46:49;5.60;;;4.28;;
35677;SDS011;21791;42.828;74.582;2023-02-04T20:49:24;6.20;;;4.40;;
35677;SDS011;21791;42.828;74.582;2023-02-04T20:51:55;5.28;;;3.78;;
35677;SDS011;21791;42.828;74.582;2023-02-04T20:54:24;6.07;;;3.95;;
35677;SDS011;21791;42.828;74.582;2023-02-04T20:57:14;7.35;;;3.97;;
35677;SDS011;21791;42.828;74.582;2023-02-04T20:59:45;6.00;;;4.00;;
35677;SDS011;21791;42.828;74.582;2023-02-04T21:02:16;6.10;;;4.35;;
35677;SDS011;21791;42.828;74.582;2023-02-04T21:04:45;6.70;;;4.00;;
35677;SDS011;21791;42.828;74.582;2023-02-04T21:07:19;6.85;;;3.47;;
35677;SDS011;21791;42.828;74.582;2023-02-04T21:09:48;5.47;;;3.30;;
35677;SDS011;21791;42.828;74.582;2023-02-04T21:12:17;7.85;;;3.60;;
35677;SDS011;21791;42.828;74.582;2023-02-04T21:14:45;3.95;;;3.20;;
35677;SDS011;21791;42.828;74.582;2023-02-04T21:17:14;4.80;;;3.20;;
35677;SDS011;21791;42.828;74.582;2023-02-04T21:19:41;5.03;;;3.50;;
35677;SDS011;21791;42.828;74.582;2023-02-04T21:22:10;5.53;;;3.50;;
35677;SDS011;21791;42.828;74.582;2023-02-04T21:24:36;4.40;;;3.10;;
35677;SDS011;21791;42.828;74.582;2023-02-04T21:27:09;5.13;;;3.50;;
35677;SDS011;21791;42.828;74.582;2023-02-04T21:29:36;6.03;;;3.85;;
35677;SDS011;21791;42.828;74.582;2023-02-04T21:32:02;4.72;;;3.42;;
35677;SDS011;21791;42.828;74.582;2023-02-04T21:34:28;5.60;;;3.47;;
35677;SDS011;21791;42.828;74.582;2023-02-04T21:36:55;4.82;;;3.42;;
35677;SDS011;21791;42.828;74.582;2023-02-04T21:39:22;5.18;;;3.40;;
35677;SDS011;21791;42.828;74.582;2023-02-04T21:41:49;4.85;;;3.95;;
35677;SDS011;21791;42.828;74.582;2023-02-04T21:44:35;4.68;;;3.40;;
35677;SDS011;21791;42.828;74.582;2023-02-04T21:47:02;4.95;;;3.72;;
35677;SDS011;21791;42.828;74.582;2023-02-04T21:49:32;5.70;;;4.20;;
35677;SDS011;21791;42.828;74.582;2023-02-04T21:51:58;5.70;;;3.60;;
35677;SDS011;21791;42.828;74.582;2023-02-04T21:54:24;4.82;;;3.50;;
35677;SDS011;21791;42.828;74.582;2023-02-04T21:56:51;5.10;;;4.05;;
35677;SDS011;21791;42.828;74.582;2023-02-04T21:59:17;5.90;;;3.92;;
35677;SDS011;21791;42.828;74.582;2023-02-04T22:01:44;4.68;;;3.33;;
35677;SDS011;21791;42.828;74.582;2023-02-04T22:04:11;6.30;;;3.95;;
35677;SDS011;21791;42.828;74.582;2023-02-04T22:06:38;7.90;;;5.53;;
35677;SDS011;21791;42.828;74.582;2023-02-04T22:09:04;19.50;;;13.60;;
35677;SDS011;21791;42.828;74.582;2023-02-04T22:11:31;33.50;;;19.77;;
35677;SDS011;21791;42.828;74.582;2023-02-04T22:13:58;27.38;;;16.38;;
35677;SDS011;21791;42.828;74.582;2023-02-04T22:16:27;30.27;;;18.20;;
35677;SDS011;21791;42.828;74.582;2023-02-04T22:18:54;32.03;;;18.95;;
35677;SDS011;21791;42.828;74.582;2023-02-04T22:21:20;43.30;;;24.67;;
35677;SDS011;21791;42.828;74.582;2023-02-04T22:23:47;34.85;;;18.65;;
35677;SDS011;21791;42.828;74.582;2023-02-04T22:26:13;44.30;;;23.52;;
35677;SDS011;21791;42.828;74.582;2023-02-04T22:28:39;44.90;;;24.83;;
35677;SDS011;21791;42.828;74.582;2023-02-04T22:31:06;20.13;;;12.35;;
35677;SDS011;21791;42.828;74.582;2023-02-04T22:33:33;23.98;;;12.93;;
35677;SDS011;21791;42.828;74.582;2023-02-04T22:35:59;23.02;;;11.93;;
35677;SDS011;21791;42.828;74.582;2023-02-04T22:38:25;16.67;;;9.75;;
35677;SDS011;21791;42.828;74.582;2023-02-04T22:40:52;17.05;;;9.93;;
35677;SDS011;21791;42.828;74.582;2023-02-04T22:43:18;24.92;;;13.45;;
35677;SDS011;21791;42.828;74.582;2023-02-04T22:45:48;22.05;;;12.07;;
35677;SDS011;21791;42.828;74.582;2023-02-04T22:48:14;21.67;;;12.25;;
35677;SDS011;21791;42.828;74.582;2023-02-04T22:50:41;20.67;;;10.80;;
35677;SDS011;21791;42.828;74.582;2023-02-04T22:53:07;20.95;;;11.10;;